createdAt,value
2022-12-11T00:01:45.379Z,171.77
2022-12-11T00:05:27.371Z,51.42
2022-12-11T00:09:10.983Z,60.00
2022-12-11T00:12:52.975Z,116.85
2022-12-11T00:16:34.996Z,97.18
2022-12-11T00:20:17.083Z,124.10
2022-12-11T00:23:59.106Z,105.15
2022-12-11T00:27:41.178Z,89.05
2022-12-11T00:31:24.397Z,149.63
2022-12-11T00:35:06.671Z,98.32
2022-12-11T00:38:49.169Z,86.15
2022-12-11T00:42:31.142Z,64.88
2022-12-11T00:46:13.290Z,65.25
2022-12-11T00:49:55.353Z,47.47
2022-12-11T00:53:37.895Z,39.70
2022-12-11T00:57:19.850Z,28.10
2022-12-11T01:01:29.131Z,13.80
2022-12-11T01:05:11.664Z,8.38
2022-12-11T01:09:15.014Z,7.80
2022-12-11T01:13:02.497Z,7.03
2022-12-11T01:16:44.496Z,27.13
2022-12-11T01:20:28.261Z,33.40
2022-12-11T01:24:10.231Z,40.67
2022-12-11T01:27:54.019Z,38.22
2022-12-11T01:31:35.943Z,29.73
2022-12-11T01:35:18.258Z,9.85
2022-12-11T01:39:00.235Z,8.82
2022-12-11T01:42:42.300Z,26.55
2022-12-11T01:46:24.917Z,46.13
2022-12-11T01:50:07.264Z,32.08
2022-12-11T01:53:53.861Z,31.90
2022-12-11T01:57:39.167Z,20.30
2022-12-11T02:01:51.209Z,38.17
2022-12-11T02:05:33.223Z,25.13
2022-12-11T02:09:19.033Z,36.25
2022-12-11T02:13:30.098Z,34.28
2022-12-11T02:17:21.880Z,31.67
2022-12-11T02:21:26.924Z,28.77
2022-12-11T02:25:27.570Z,21.38
2022-12-11T02:29:18.153Z,20.95
2022-12-11T02:33:00.175Z,18.27
2022-12-11T02:36:51.684Z,34.03
2022-12-11T02:40:37.129Z,31.30
2022-12-11T02:44:26.610Z,30.65
2022-12-11T02:48:11.380Z,30.08
2022-12-11T02:51:55.605Z,26.52
2022-12-11T02:55:39.341Z,32.35
2022-12-11T02:59:27.402Z,26.88
2022-12-11T03:03:09.615Z,35.20
2022-12-11T03:06:55.623Z,33.42
2022-12-11T03:10:37.602Z,33.95
2022-12-11T03:14:19.819Z,31.58
2022-12-11T03:18:35.710Z,34.72
2022-12-11T03:22:41.312Z,25.05
2022-12-11T03:26:24.135Z,31.38
2022-12-11T03:30:10.521Z,25.92
2022-12-11T03:33:56.109Z,27.38
2022-12-11T03:37:40.772Z,26.95
2022-12-11T03:41:25.068Z,27.13
2022-12-11T03:45:08.991Z,25.25
2022-12-11T03:48:53.039Z,27.48
2022-12-11T03:52:42.405Z,23.08
2022-12-11T03:56:30.440Z,25.83
2022-12-11T04:00:16.233Z,22.95
2022-12-11T04:03:58.206Z,36.30
2022-12-11T04:07:40.236Z,22.27
2022-12-11T04:11:37.318Z,20.70
2022-12-11T04:15:19.560Z,19.35
2022-12-11T04:19:20.187Z,19.83
2022-12-11T04:23:23.934Z,17.58
2022-12-11T04:27:05.922Z,19.42
2022-12-11T04:30:49.960Z,20.10
2022-12-11T04:34:32.049Z,19.17
2022-12-11T04:38:14.082Z,23.30
2022-12-11T04:41:56.040Z,24.63
2022-12-11T04:45:37.998Z,20.10
2022-12-11T04:49:19.899Z,19.15
2022-12-11T04:53:01.849Z,20.52
2022-12-11T04:56:43.835Z,22.77
2022-12-11T05:00:25.818Z,20.55
2022-12-11T05:04:07.725Z,19.25
2022-12-11T05:07:49.713Z,20.88
2022-12-11T05:11:31.775Z,20.95
2022-12-11T05:15:13.829Z,21.40
2022-12-11T05:18:55.817Z,20.02
2022-12-11T05:22:38.750Z,18.98
2022-12-11T05:26:21.382Z,18.73
2022-12-11T05:30:03.774Z,17.85
2022-12-11T05:33:47.530Z,19.25
2022-12-11T05:37:29.715Z,17.30
2022-12-11T05:41:14.574Z,18.08
2022-12-11T05:44:56.578Z,16.15
2022-12-11T05:48:38.951Z,20.48
2022-12-11T05:52:21.775Z,14.80
2022-12-11T05:56:10.386Z,17.33
2022-12-11T05:59:52.364Z,16.48
2022-12-11T06:03:34.292Z,16.05
2022-12-11T06:07:16.287Z,14.98
2022-12-11T06:10:58.713Z,14.48
2022-12-11T06:14:41.099Z,16.13
2022-12-11T06:18:23.056Z,16.13
2022-12-11T06:22:05.402Z,16.17
2022-12-11T06:25:47.580Z,17.92
2022-12-11T06:29:29.555Z,16.77
2022-12-11T06:33:11.483Z,17.30
2022-12-11T06:36:53.462Z,16.45
2022-12-11T06:40:35.387Z,18.05
2022-12-11T06:44:17.504Z,17.13
2022-12-11T06:47:59.446Z,19.90
2022-12-11T06:51:41.493Z,20.08
2022-12-11T06:55:23.531Z,19.08
2022-12-11T06:59:07.472Z,20.17
2022-12-11T07:02:51.424Z,23.00
2022-12-11T07:06:33.404Z,25.33
2022-12-11T07:10:15.475Z,25.55
2022-12-11T07:14:03.482Z,24.77
2022-12-11T07:17:45.453Z,25.33
2022-12-11T07:21:27.456Z,25.35
2022-12-11T07:25:10.116Z,20.95
2022-12-11T07:28:52.656Z,21.98
2022-12-11T07:32:34.696Z,20.45
2022-12-11T07:36:16.678Z,21.17
2022-12-11T07:39:58.610Z,20.27
2022-12-11T07:43:41.476Z,18.02
2022-12-11T07:47:23.403Z,20.02
2022-12-11T07:51:17.666Z,20.13
2022-12-11T07:54:59.600Z,20.50
2022-12-11T07:58:42.112Z,20.85
2022-12-11T08:02:24.097Z,20.70
2022-12-11T08:06:06.851Z,21.60
2022-12-11T08:09:48.799Z,20.13
2022-12-11T08:13:31.406Z,17.50
2022-12-11T08:17:13.338Z,18.20
2022-12-11T08:20:55.261Z,28.08
2022-12-11T08:24:37.170Z,17.02
2022-12-11T08:28:19.180Z,18.30
2022-12-11T08:32:01.084Z,15.95
2022-12-11T08:35:44.180Z,19.45
2022-12-11T08:39:26.922Z,17.10
2022-12-11T08:43:08.912Z,15.07
2022-12-11T08:46:50.893Z,13.02
2022-12-11T08:50:32.953Z,14.02
2022-12-11T08:54:14.914Z,13.85
2022-12-11T08:57:56.879Z,16.27
2022-12-11T09:01:38.918Z,15.80
2022-12-11T09:05:21.018Z,14.35
2022-12-11T09:09:04.483Z,13.32
2022-12-11T09:12:46.430Z,14.57
2022-12-11T09:16:29.373Z,14.07
2022-12-11T09:20:11.736Z,14.40
2022-12-11T09:23:55.849Z,15.38
2022-12-11T09:27:37.815Z,18.20
2022-12-11T09:31:25.504Z,18.02
2022-12-11T09:35:08.675Z,16.42
2022-12-11T09:38:50.892Z,16.77
2022-12-11T09:42:43.187Z,18.50
2022-12-11T09:46:30.559Z,18.52
2022-12-11T09:50:25.526Z,17.33
2022-12-11T09:54:07.776Z,21.23
2022-12-11T09:58:30.866Z,17.73
2022-12-11T10:02:39.201Z,14.98
2022-12-11T10:06:41.127Z,23.23
2022-12-11T10:10:47.320Z,20.10
2022-12-11T10:14:47.938Z,21.55
2022-12-11T10:18:31.366Z,20.95
2022-12-11T10:22:34.019Z,15.82
2022-12-11T10:26:21.424Z,18.05
2022-12-11T10:30:32.961Z,20.40
2022-12-11T10:34:24.476Z,20.60
2022-12-11T10:38:14.716Z,17.70
2022-12-11T10:41:57.460Z,19.92
2022-12-11T10:45:40.122Z,23.83
2022-12-11T10:49:27.493Z,25.58
2022-12-11T10:53:24.174Z,19.77
2022-12-11T10:57:08.495Z,19.58
2022-12-11T11:01:06.491Z,20.80
2022-12-11T11:04:48.879Z,26.98
2022-12-11T11:08:40.788Z,19.63
2022-12-11T11:12:27.761Z,19.58
2022-12-11T11:16:15.348Z,21.02
2022-12-11T11:20:01.472Z,21.10
2022-12-11T11:23:47.232Z,18.25
2022-12-11T11:27:41.395Z,21.52
2022-12-11T11:31:34.864Z,18.70
2022-12-11T11:35:24.015Z,22.98
2022-12-11T11:39:27.862Z,22.05
2022-12-11T11:43:40.718Z,21.27
2022-12-11T11:47:27.936Z,17.88
2022-12-11T11:51:16.660Z,19.23
2022-12-11T11:55:10.202Z,18.13
2022-12-11T11:59:14.371Z,18.02
2022-12-11T12:03:00.360Z,18.13
2022-12-11T12:07:10.506Z,14.75
2022-12-11T12:11:12.687Z,17.85
2022-12-11T12:15:19.163Z,14.68
2022-12-11T12:19:12.745Z,24.45
2022-12-11T12:23:19.019Z,21.08
2022-12-11T12:27:43.280Z,16.33
2022-12-11T12:31:35.720Z,20.60
2022-12-11T12:35:29.686Z,25.55
2022-12-11T12:39:49.181Z,17.45
2022-12-11T12:43:48.296Z,17.50
2022-12-11T12:47:35.021Z,18.02
2022-12-11T12:51:17.815Z,19.30
2022-12-11T12:55:14.845Z,16.67
2022-12-11T12:58:57.022Z,20.23
2022-12-11T13:02:53.845Z,21.67
2022-12-11T13:06:40.631Z,23.23
2022-12-11T13:10:30.684Z,21.38
2022-12-11T13:14:15.825Z,22.33
2022-12-11T13:17:58.314Z,20.23
2022-12-11T13:21:40.377Z,20.98
2022-12-11T13:25:27.123Z,25.08
2022-12-11T13:29:35.869Z,25.85
2022-12-11T13:37:03.286Z,22.40
2022-12-11T13:40:49.887Z,24.45
2022-12-11T13:44:39.060Z,26.52
2022-12-11T13:48:37.007Z,22.95
2022-12-11T13:52:28.689Z,26.00
2022-12-11T13:56:22.499Z,24.80
2022-12-11T14:00:05.883Z,26.35
2022-12-11T14:03:55.179Z,26.17
2022-12-11T14:07:59.575Z,24.55
2022-12-11T14:11:42.973Z,28.17
2022-12-11T14:15:26.214Z,27.75
2022-12-11T14:19:09.928Z,27.17
2022-12-11T14:22:51.936Z,26.95
2022-12-11T14:26:37.969Z,27.40
2022-12-11T14:30:30.030Z,26.00
2022-12-11T14:34:28.419Z,28.58
2022-12-11T14:42:22.098Z,28.23
2022-12-11T14:46:29.345Z,28.73
2022-12-11T14:50:47.678Z,31.40
2022-12-11T14:54:41.215Z,30.93
2022-12-11T14:58:26.646Z,29.50
2022-12-11T15:02:34.462Z,31.55
2022-12-11T15:06:29.700Z,35.55
2022-12-11T15:10:35.650Z,33.53
2022-12-11T15:14:21.387Z,75.65
2022-12-11T15:18:12.766Z,52.95
2022-12-11T15:21:55.557Z,38.65
2022-12-11T15:25:37.562Z,39.63
2022-12-11T15:29:30.402Z,39.65
2022-12-11T15:33:12.324Z,40.10
2022-12-11T15:36:54.264Z,42.05
2022-12-11T15:40:36.238Z,34.83
2022-12-11T15:44:21.654Z,43.85
2022-12-11T15:48:03.753Z,39.38
2022-12-11T15:51:45.997Z,43.30
2022-12-11T15:55:34.320Z,36.53
2022-12-11T15:59:16.472Z,37.67
2022-12-11T16:02:58.704Z,35.22
2022-12-11T16:06:45.352Z,32.72
2022-12-11T16:10:27.358Z,35.67
2022-12-11T16:14:09.308Z,36.78
2022-12-11T16:18:04.019Z,35.63
2022-12-11T16:21:46.025Z,32.42
2022-12-11T16:25:28.551Z,31.58
2022-12-11T16:29:10.524Z,41.70
2022-12-11T16:32:52.763Z,32.25
2022-12-11T16:36:34.872Z,32.70
2022-12-11T16:40:17.633Z,33.90
2022-12-11T16:44:01.743Z,32.35
2022-12-11T16:47:43.896Z,34.40
2022-12-11T16:51:25.908Z,34.13
2022-12-11T16:55:08.877Z,36.65
2022-12-11T16:58:51.037Z,34.00
2022-12-11T17:02:32.998Z,31.25
2022-12-11T17:06:17.471Z,29.88
2022-12-11T17:10:01.867Z,29.55
2022-12-11T17:13:44.596Z,27.65
2022-12-11T17:17:26.627Z,30.60
2022-12-11T17:21:16.070Z,26.70
2022-12-11T17:24:58.037Z,28.05
2022-12-11T17:28:40.346Z,31.75
2022-12-11T17:32:22.437Z,26.50
2022-12-11T17:36:06.309Z,24.45
2022-12-11T17:39:48.254Z,32.38
2022-12-11T17:43:30.297Z,27.17
2022-12-11T17:47:12.274Z,27.60
2022-12-11T17:50:54.797Z,29.15
2022-12-11T17:54:39.359Z,28.65
2022-12-11T17:58:23.555Z,27.33
2022-12-11T18:02:05.596Z,24.10
2022-12-11T18:05:50.431Z,26.60
2022-12-11T18:09:32.855Z,33.53
2022-12-11T18:13:15.199Z,28.17
2022-12-11T18:16:57.184Z,28.42
2022-12-11T18:20:40.304Z,28.27
2022-12-11T18:24:23.038Z,29.83
2022-12-11T18:28:05.301Z,32.40
2022-12-11T18:31:47.287Z,29.42
2022-12-11T18:35:29.954Z,30.50
2022-12-11T18:39:11.907Z,30.27
2022-12-11T18:42:55.297Z,30.45
2022-12-11T18:46:37.497Z,32.47
2022-12-11T18:50:19.723Z,29.58
2022-12-11T18:54:01.723Z,31.85
2022-12-11T18:57:44.676Z,33.33
2022-12-11T19:01:29.318Z,31.80
2022-12-11T19:05:12.099Z,37.47
2022-12-11T19:08:55.293Z,34.25
2022-12-11T19:12:37.440Z,35.85
2022-12-11T19:16:23.160Z,32.17
2022-12-11T19:20:25.392Z,30.55
2022-12-11T19:24:12.658Z,30.27
2022-12-11T19:27:56.941Z,29.45
2022-12-11T19:31:39.004Z,40.55
2022-12-11T19:35:21.084Z,31.40
2022-12-11T19:39:07.071Z,28.67
2022-12-11T19:42:52.052Z,29.38
2022-12-11T19:46:34.175Z,26.65
2022-12-11T19:50:16.274Z,29.65
2022-12-11T19:53:59.393Z,26.33
2022-12-11T19:57:41.297Z,24.85
2022-12-11T20:01:28.890Z,27.35
2022-12-11T20:05:11.533Z,26.05
2022-12-11T20:08:53.690Z,24.88
2022-12-11T20:12:35.663Z,23.83
2022-12-11T20:16:28.825Z,23.02
2022-12-11T20:20:21.568Z,22.83
2022-12-11T20:24:04.052Z,22.85
2022-12-11T20:27:46.660Z,20.85
2022-12-11T20:31:28.664Z,26.38
2022-12-11T20:35:11.663Z,28.52
2022-12-11T20:38:53.953Z,20.70
2022-12-11T20:42:35.912Z,22.95
2022-12-11T20:46:18.696Z,21.00
2022-12-11T20:50:00.887Z,22.67
2022-12-11T20:53:43.218Z,19.27
2022-12-11T20:57:25.295Z,21.38
2022-12-11T21:01:07.718Z,23.33
2022-12-11T21:04:49.747Z,21.80
2022-12-11T21:08:31.737Z,26.88
2022-12-11T21:12:13.792Z,29.20
2022-12-11T21:15:56.973Z,24.73
2022-12-11T21:19:39.100Z,22.80
2022-12-11T21:23:21.111Z,21.42
2022-12-11T21:27:03.077Z,23.63
2022-12-11T21:30:45.088Z,21.05
2022-12-11T21:34:27.574Z,23.73
2022-12-11T21:38:10.050Z,21.90
2022-12-11T21:41:52.069Z,19.38
2022-12-11T21:46:05.019Z,15.05
2022-12-11T21:49:38.706Z,14.68
2022-12-11T21:53:20.687Z,13.30
2022-12-11T21:57:02.609Z,14.30
2022-12-11T22:00:45.889Z,13.38
2022-12-11T22:04:27.960Z,18.15
2022-12-11T22:08:10.003Z,12.25
2022-12-11T22:11:57.908Z,14.90
2022-12-11T22:15:40.475Z,14.82
2022-12-11T22:19:22.404Z,15.00
2022-12-11T22:23:04.388Z,13.88
2022-12-11T22:26:46.420Z,15.63
2022-12-11T22:30:28.827Z,14.65
2022-12-11T22:34:10.811Z,16.02
2022-12-11T22:37:52.954Z,18.35
2022-12-11T22:41:38.399Z,17.08
2022-12-11T22:45:20.359Z,16.33
2022-12-11T22:49:02.444Z,13.85
2022-12-11T22:52:45.458Z,14.82
2022-12-11T22:56:28.033Z,19.13
2022-12-11T23:00:13.423Z,16.67
2022-12-11T23:03:55.644Z,16.90
2022-12-11T23:07:38.332Z,16.30
2022-12-11T23:11:34.954Z,17.08
2022-12-11T23:15:17.316Z,14.60
2022-12-11T23:18:59.830Z,15.48
2022-12-11T23:22:41.734Z,13.15
2022-12-11T23:26:24.467Z,11.90
2022-12-11T23:30:07.235Z,14.75
2022-12-11T23:33:49.670Z,13.38
2022-12-11T23:37:31.951Z,13.95
2022-12-11T23:41:14.891Z,15.38
2022-12-11T23:44:57.191Z,15.55
2022-12-11T23:48:39.314Z,13.93
2022-12-11T23:52:22.760Z,16.17
2022-12-11T23:56:14.459Z,20.50
2022-12-11T23:59:56.379Z,24.02
